createdAt,value
2019-02-08T00:00:04.984Z,1003.17
2019-02-08T00:01:04.925Z,1003.13
2019-02-08T00:02:04.910Z,1003.20
2019-02-08T00:03:04.900Z,1003.18
2019-02-08T00:04:04.889Z,1003.22
2019-02-08T00:05:04.881Z,1003.23
2019-02-08T00:06:04.909Z,1003.25
2019-02-08T00:07:04.868Z,1003.19
2019-02-08T00:08:04.843Z,1003.22
2019-02-08T00:09:04.835Z,1003.19
2019-02-08T00:10:04.824Z,1003.19
2019-02-08T00:11:04.811Z,1003.22
2019-02-08T00:12:04.825Z,1003.17
2019-02-08T00:13:04.789Z,1003.17
2019-02-08T00:14:04.791Z,1003.18
2019-02-08T00:15:04.767Z,1003.17
2019-02-08T00:16:04.760Z,1003.15
2019-02-08T00:17:04.752Z,1003.21
2019-02-08T00:18:04.755Z,1003.14
2019-02-08T00:19:04.724Z,1003.15
2019-02-08T00:20:04.763Z,1003.16
2019-02-08T00:21:04.712Z,1003.17
2019-02-08T00:22:04.700Z,1003.14
2019-02-08T00:23:04.683Z,1003.11
2019-02-08T00:24:04.672Z,1003.02
2019-02-08T00:25:04.667Z,1003.13
2019-02-08T00:26:04.670Z,1003.10
2019-02-08T00:27:04.636Z,1003.16
2019-02-08T00:28:04.624Z,1003.09
2019-02-08T00:29:04.615Z,1003.16
2019-02-08T00:30:04.630Z,1003.15
2019-02-08T00:31:04.599Z,1003.17
2019-02-08T00:32:04.595Z,1003.19
2019-02-08T00:33:04.569Z,1003.22
2019-02-08T00:34:04.559Z,1003.30
2019-02-08T00:35:04.545Z,1003.30
2019-02-08T00:36:04.543Z,1003.33
2019-02-08T00:37:04.553Z,1003.32
2019-02-08T00:38:04.513Z,1003.33
2019-02-08T00:39:04.510Z,1003.32
2019-02-08T00:40:04.490Z,1003.33
2019-02-08T00:41:04.478Z,1003.35
2019-02-08T00:42:04.478Z,1003.39
2019-02-08T00:43:04.472Z,1003.38
2019-02-08T00:44:04.447Z,1003.39
2019-02-08T00:45:04.437Z,1003.39
2019-02-08T00:46:04.426Z,1003.38
2019-02-08T00:47:04.414Z,1003.34
2019-02-08T00:48:04.437Z,1003.42
2019-02-08T00:49:04.393Z,1003.42
2019-02-08T00:50:04.382Z,1003.45
2019-02-08T00:51:04.376Z,1003.45
2019-02-08T00:52:04.356Z,1003.47
2019-02-08T00:53:04.348Z,1003.44
2019-02-08T00:54:04.374Z,1003.50
2019-02-08T00:55:04.324Z,1003.44
2019-02-08T00:56:04.315Z,1003.53
2019-02-08T00:57:04.303Z,1003.50
2019-02-08T00:58:04.290Z,1003.51
2019-02-08T00:59:04.279Z,1003.44
2019-02-08T01:00:04.313Z,1003.46
2019-02-08T01:01:04.284Z,1003.47
2019-02-08T01:02:04.251Z,1003.52
2019-02-08T01:03:04.238Z,1003.49
2019-02-08T01:04:04.228Z,1003.51
2019-02-08T01:05:04.220Z,1003.53
2019-02-08T01:06:04.245Z,1003.53
2019-02-08T01:07:04.193Z,1003.54
2019-02-08T01:08:04.180Z,1003.56
2019-02-08T01:09:04.173Z,1003.52
2019-02-08T01:10:04.159Z,1003.53
2019-02-08T01:11:04.154Z,1003.48
2019-02-08T01:12:04.169Z,1003.50
2019-02-08T01:13:04.126Z,1003.51
2019-02-08T01:14:04.116Z,1003.45
2019-02-08T01:15:04.105Z,1003.49
2019-02-08T01:16:04.091Z,1003.49
2019-02-08T01:17:04.086Z,1003.54
2019-02-08T01:18:04.117Z,1003.51
2019-02-08T01:19:04.062Z,1003.50
2019-02-08T01:20:04.052Z,1003.47
2019-02-08T01:21:04.036Z,1003.48
2019-02-08T01:22:04.028Z,1003.51
2019-02-08T01:23:04.018Z,1003.46
2019-02-08T01:24:04.030Z,1003.49
2019-02-08T01:25:03.994Z,1003.49
2019-02-08T01:26:03.985Z,1003.53
2019-02-08T01:27:03.972Z,1003.51
2019-02-08T01:28:03.960Z,1003.53
2019-02-08T01:29:03.963Z,1003.55
2019-02-08T01:30:03.945Z,1003.56
2019-02-08T01:31:03.931Z,1003.57
2019-02-08T01:32:03.915Z,1003.56
2019-02-08T01:33:03.907Z,1003.53
2019-02-08T01:34:03.906Z,1003.58
2019-02-08T01:35:03.894Z,1003.62
2019-02-08T01:36:03.888Z,1003.63
2019-02-08T01:37:03.858Z,1003.61
2019-02-08T01:38:03.864Z,1003.60
2019-02-08T01:39:03.850Z,1003.61
2019-02-08T01:40:03.827Z,1003.57
2019-02-08T01:41:03.817Z,1003.61
2019-02-08T01:42:03.814Z,1003.60
2019-02-08T01:43:03.814Z,1003.58
2019-02-08T01:44:03.796Z,1003.59
2019-02-08T01:45:03.774Z,1003.51
2019-02-08T01:46:03.797Z,1003.59
2019-02-08T01:47:03.752Z,1003.56
2019-02-08T01:48:03.754Z,1003.61
2019-02-08T01:49:03.769Z,1003.62
2019-02-08T01:50:03.719Z,1003.58
2019-02-08T01:51:03.752Z,1003.57
2019-02-08T01:52:03.698Z,1003.56
2019-02-08T01:53:03.683Z,1003.59
2019-02-08T01:54:03.678Z,1003.61
2019-02-08T01:55:03.675Z,1003.61
2019-02-08T01:56:03.659Z,1003.71
2019-02-08T01:57:03.642Z,1003.61
2019-02-08T01:58:03.630Z,1003.65
2019-02-08T01:59:03.620Z,1003.59
2019-02-08T02:00:03.632Z,1003.58
2019-02-08T02:01:03.601Z,1003.58
2019-02-08T02:02:03.597Z,1003.59
2019-02-08T02:03:03.572Z,1003.49
2019-02-08T02:04:03.580Z,1003.55
2019-02-08T02:05:03.557Z,1003.55
2019-02-08T02:06:03.567Z,1003.51
2019-02-08T02:07:03.527Z,1003.57
2019-02-08T02:08:03.518Z,1003.52
2019-02-08T02:09:03.507Z,1003.59
2019-02-08T02:10:03.540Z,1003.51
2019-02-08T02:11:03.483Z,1003.56
2019-02-08T02:12:03.493Z,1003.47
2019-02-08T02:13:03.465Z,1003.55
2019-02-08T02:14:03.451Z,1003.55
2019-02-08T02:15:03.445Z,1003.60
2019-02-08T02:16:04.215Z,1003.62
2019-02-08T02:17:03.451Z,1003.58
2019-02-08T02:18:03.414Z,1003.50
2019-02-08T02:19:03.403Z,1003.57
2019-02-08T02:20:03.391Z,1003.59
2019-02-08T02:21:03.384Z,1003.52
2019-02-08T02:22:03.373Z,1003.59
2019-02-08T02:23:03.363Z,1003.54
2019-02-08T02:24:03.362Z,1003.55
2019-02-08T02:25:03.329Z,1003.66
2019-02-08T02:26:03.327Z,1003.62
2019-02-08T02:27:03.308Z,1003.59
2019-02-08T02:28:03.313Z,1003.64
2019-02-08T02:29:03.298Z,1003.65
2019-02-08T02:30:03.349Z,1003.68
2019-02-08T02:31:03.269Z,1003.76
2019-02-08T02:32:03.256Z,1003.68
2019-02-08T02:33:03.241Z,1003.67
2019-02-08T02:34:03.245Z,1003.66
2019-02-08T02:35:03.259Z,1003.74
2019-02-08T02:36:03.224Z,1003.73
2019-02-08T02:37:03.197Z,1003.75
2019-02-08T02:38:03.189Z,1003.72
2019-02-08T02:39:03.176Z,1003.70
2019-02-08T02:40:03.166Z,1003.76
2019-02-08T02:41:03.194Z,1003.66
2019-02-08T02:42:03.167Z,1003.79
2019-02-08T02:43:03.131Z,1003.78
2019-02-08T02:44:03.121Z,1003.81
2019-02-08T02:45:03.111Z,1003.84
2019-02-08T02:46:11.819Z,1003.87
2019-02-08T02:47:03.085Z,1003.87
2019-02-08T02:48:03.077Z,1003.87
2019-02-08T02:49:03.080Z,1003.83
2019-02-08T02:50:03.054Z,1003.85
2019-02-08T02:51:03.050Z,1003.90
2019-02-08T02:52:03.056Z,1003.90
2019-02-08T02:53:03.027Z,1003.84
2019-02-08T02:54:04.933Z,1003.83
2019-02-08T02:55:03.006Z,1003.83
2019-02-08T02:56:02.990Z,1003.88
2019-02-08T02:57:02.975Z,1003.96
2019-02-08T02:58:02.991Z,1003.88
2019-02-08T02:59:02.955Z,1003.88
2019-02-08T03:00:02.942Z,1003.88
2019-02-08T03:01:02.936Z,1003.88
2019-02-08T03:02:02.930Z,1003.87
2019-02-08T03:03:02.911Z,1003.87
2019-02-08T03:04:02.910Z,1003.89
2019-02-08T03:05:02.912Z,1003.86
2019-02-08T03:06:02.877Z,1003.84
2019-02-08T03:07:02.867Z,1003.87
2019-02-08T03:08:02.862Z,1003.85
2019-02-08T03:09:02.857Z,1003.86
2019-02-08T03:10:02.834Z,1003.85
2019-02-08T03:11:02.836Z,1003.85
2019-02-08T03:12:02.808Z,1003.89
2019-02-08T03:13:02.798Z,1003.89
2019-02-08T03:14:02.808Z,1003.87
2019-02-08T03:15:02.778Z,1003.88
2019-02-08T03:16:02.766Z,1003.91
2019-02-08T03:17:02.756Z,1003.94
2019-02-08T03:18:02.744Z,1003.99
2019-02-08T03:19:02.745Z,1003.95
2019-02-08T03:20:02.724Z,1003.96
2019-02-08T03:21:02.711Z,1003.95
2019-02-08T03:22:02.729Z,1003.91
2019-02-08T03:23:02.705Z,1003.93
2019-02-08T03:24:02.685Z,1003.91
2019-02-08T03:25:02.666Z,1003.97
2019-02-08T03:26:02.667Z,1003.92
2019-02-08T03:27:02.652Z,1004.01
2019-02-08T03:28:02.683Z,1004.00
2019-02-08T03:29:02.625Z,1004.00
2019-02-08T03:30:02.614Z,1004.00
2019-02-08T03:31:02.606Z,1004.01
2019-02-08T03:32:02.597Z,1003.98
2019-02-08T03:33:02.629Z,1004.03
2019-02-08T03:34:02.603Z,1004.04
2019-02-08T03:35:02.572Z,1004.06
2019-02-08T03:36:02.547Z,1004.06
2019-02-08T03:37:02.534Z,1004.07
2019-02-08T03:38:02.524Z,1004.09
2019-02-08T03:39:02.525Z,1004.06
2019-02-08T03:40:02.520Z,1004.09
2019-02-08T03:41:02.494Z,1004.07
2019-02-08T03:42:02.482Z,1004.11
2019-02-08T03:43:02.472Z,1004.04
2019-02-08T03:44:02.460Z,1004.10
2019-02-08T03:45:02.465Z,1004.08
2019-02-08T03:46:02.457Z,1004.07
2019-02-08T03:47:02.432Z,1004.03
2019-02-08T03:48:02.416Z,1004.09
2019-02-08T03:49:02.404Z,1004.17
2019-02-08T03:50:02.396Z,1004.13
2019-02-08T03:51:02.394Z,1004.15
2019-02-08T03:52:02.380Z,1004.18
2019-02-08T03:53:02.360Z,1004.21
2019-02-08T03:54:02.357Z,1004.21
2019-02-08T03:55:02.338Z,1004.23
2019-02-08T03:56:02.346Z,1004.26
2019-02-08T03:57:02.319Z,1004.25
2019-02-08T03:58:02.316Z,1004.24
2019-02-08T03:59:02.295Z,1004.29
2019-02-08T04:00:02.289Z,1004.26
2019-02-08T04:01:02.284Z,1004.30
2019-02-08T04:02:02.265Z,1004.25
2019-02-08T04:03:02.290Z,1004.25
2019-02-08T04:04:02.246Z,1004.27
2019-02-08T04:05:02.251Z,1004.25
2019-02-08T04:06:02.217Z,1004.36
2019-02-08T04:07:02.207Z,1004.31
2019-02-08T04:08:02.198Z,1004.33
2019-02-08T04:09:02.198Z,1004.23
2019-02-08T04:10:02.180Z,1004.28
2019-02-08T04:11:02.165Z,1004.27
2019-02-08T04:12:02.150Z,1004.24
2019-02-08T04:13:02.141Z,1004.28
2019-02-08T04:14:02.170Z,1004.28
2019-02-08T04:15:02.118Z,1004.26
2019-02-08T04:16:02.122Z,1004.32
2019-02-08T04:17:02.098Z,1004.25
2019-02-08T04:18:02.087Z,1004.29
2019-02-08T04:19:02.077Z,1004.29
2019-02-08T04:20:02.077Z,1004.31
2019-02-08T04:21:02.054Z,1004.29
2019-02-08T04:22:02.051Z,1004.30
2019-02-08T04:23:02.040Z,1004.33
2019-02-08T04:24:02.033Z,1004.33
2019-02-08T04:25:02.010Z,1004.30
2019-02-08T04:26:01.999Z,1004.30
2019-02-08T04:27:01.999Z,1004.31
2019-02-08T04:28:01.988Z,1004.30
2019-02-08T04:29:01.965Z,1004.29
2019-02-08T04:30:01.976Z,1004.28
2019-02-08T04:31:01.945Z,1004.24
2019-02-08T04:32:01.956Z,1004.28
2019-02-08T04:33:01.921Z,1004.25
2019-02-08T04:34:01.921Z,1004.28
2019-02-08T04:35:01.897Z,1004.32
2019-02-08T04:36:01.887Z,1004.40
2019-02-08T04:37:01.908Z,1004.39
2019-02-08T04:38:01.898Z,1004.39
2019-02-08T04:39:01.854Z,1004.39
2019-02-08T04:40:01.870Z,1004.34
2019-02-08T04:41:01.834Z,1004.40
2019-02-08T04:42:01.822Z,1004.40
2019-02-08T04:43:01.809Z,1004.40
2019-02-08T04:44:01.814Z,1004.40
2019-02-08T04:45:01.789Z,1004.41
2019-02-08T04:46:01.789Z,1004.36
2019-02-08T04:47:01.768Z,1004.46
2019-02-08T04:48:01.757Z,1004.43
2019-02-08T04:49:01.781Z,1004.40
2019-02-08T04:50:01.732Z,1004.42
2019-02-08T04:51:01.729Z,1004.41
2019-02-08T04:52:01.721Z,1004.47
2019-02-08T04:53:01.701Z,1004.42
2019-02-08T04:54:01.690Z,1004.46
2019-02-08T04:55:01.702Z,1004.48
2019-02-08T04:56:01.667Z,1004.49
2019-02-08T04:57:01.656Z,1004.47
2019-02-08T04:58:01.656Z,1004.50
2019-02-08T04:59:01.636Z,1004.45
2019-02-08T05:00:01.624Z,1004.46
2019-02-08T05:01:01.623Z,1004.45
2019-02-08T05:02:01.609Z,1004.44
2019-02-08T05:03:01.594Z,1004.44
2019-02-08T05:04:01.584Z,1004.46
2019-02-08T05:05:01.585Z,1004.50
2019-02-08T05:06:01.557Z,1004.51
2019-02-08T05:07:01.548Z,1004.51
2019-02-08T05:08:01.538Z,1004.48
2019-02-08T05:09:01.542Z,1004.51
2019-02-08T05:10:01.520Z,1004.48
2019-02-08T05:11:01.507Z,1004.48
2019-02-08T05:12:01.500Z,1004.47
2019-02-08T05:13:01.481Z,1004.39
2019-02-08T05:14:01.483Z,1004.41
2019-02-08T05:15:01.461Z,1004.36
2019-02-08T05:16:01.493Z,1004.33
2019-02-08T05:17:01.436Z,1004.33
2019-02-08T05:18:01.426Z,1004.33
2019-02-08T05:19:01.415Z,1004.33
2019-02-08T05:20:01.403Z,1004.33
2019-02-08T05:21:01.392Z,1004.30
2019-02-08T05:22:01.404Z,1004.29
2019-02-08T05:23:01.373Z,1004.29
2019-02-08T05:24:01.378Z,1004.24
2019-02-08T05:25:01.347Z,1004.35
2019-02-08T05:26:01.341Z,1004.25
2019-02-08T05:27:01.332Z,1004.27
2019-02-08T05:28:01.342Z,1004.30
2019-02-08T05:29:01.304Z,1004.30
2019-02-08T05:30:01.295Z,1004.25
2019-02-08T05:31:01.295Z,1004.21
2019-02-08T05:32:01.273Z,1004.17
2019-02-08T05:33:01.263Z,1004.23
2019-02-08T05:34:01.251Z,1004.24
2019-02-08T05:35:01.250Z,1004.27
2019-02-08T05:36:01.250Z,1004.26
2019-02-08T05:37:01.217Z,1004.24
2019-02-08T05:38:01.207Z,1004.24
2019-02-08T05:39:01.193Z,1004.22
2019-02-08T05:40:01.183Z,1004.20
2019-02-08T05:41:01.178Z,1004.22
2019-02-08T05:42:01.172Z,1004.23
2019-02-08T05:43:01.152Z,1004.23
2019-02-08T05:44:01.170Z,1004.28
2019-02-08T05:45:01.127Z,1004.27
2019-02-08T05:46:01.115Z,1004.28
2019-02-08T05:47:01.112Z,1004.29
2019-02-08T05:48:01.100Z,1004.26
2019-02-08T05:49:01.092Z,1004.22
2019-02-08T05:50:01.117Z,1004.26
2019-02-08T05:51:01.068Z,1004.22
2019-02-08T05:52:01.055Z,1004.26
2019-02-08T05:53:01.038Z,1004.20
2019-02-08T05:54:01.028Z,1004.23
2019-02-08T05:55:01.022Z,1004.25
2019-02-08T05:56:01.032Z,1004.26
2019-02-08T05:57:00.997Z,1004.23
2019-02-08T05:58:00.984Z,1004.27
2019-02-08T05:59:00.974Z,1004.32
2019-02-08T06:00:00.975Z,1004.30
2019-02-08T06:01:00.951Z,1004.29
2019-02-08T06:02:00.949Z,1004.27
2019-02-08T06:03:00.967Z,1004.33
2019-02-08T06:04:00.929Z,1004.32
2019-02-08T06:05:00.919Z,1004.32
2019-02-08T06:06:00.897Z,1004.31
2019-02-08T06:07:00.884Z,1004.26
2019-02-08T06:08:00.881Z,1004.27
2019-02-08T06:09:00.861Z,1004.30
2019-02-08T06:10:00.864Z,1004.25
2019-02-08T06:11:00.843Z,1004.24
2019-02-08T06:12:00.830Z,1004.17
2019-02-08T06:13:00.844Z,1004.20
2019-02-08T06:14:00.812Z,1004.14
2019-02-08T06:15:00.801Z,1004.18
2019-02-08T06:16:00.793Z,1004.16
2019-02-08T06:17:00.796Z,1004.16
2019-02-08T06:18:00.764Z,1004.21
2019-02-08T06:19:00.766Z,1004.16
2019-02-08T06:20:00.742Z,1004.18
2019-02-08T06:21:00.728Z,1004.19
2019-02-08T06:22:00.719Z,1004.23
2019-02-08T06:23:00.730Z,1004.21
2019-02-08T06:24:00.698Z,1004.23
2019-02-08T06:25:03.795Z,1004.19
2019-02-08T06:26:00.707Z,1004.14
2019-02-08T06:27:00.663Z,1004.17
2019-02-08T06:28:00.686Z,1004.22
2019-02-08T06:29:00.648Z,1004.25
2019-02-08T06:30:00.630Z,1004.25
2019-02-08T06:31:00.623Z,1004.25
2019-02-08T06:32:00.608Z,1004.27
2019-02-08T06:33:00.597Z,1004.28
2019-02-08T06:34:00.611Z,1004.23
2019-02-08T06:35:00.585Z,1004.31
2019-02-08T06:36:00.565Z,1004.25
2019-02-08T06:37:00.554Z,1004.25
2019-02-08T06:38:00.541Z,1004.31
2019-02-08T06:39:00.531Z,1004.34
2019-02-08T06:40:00.545Z,1004.30
2019-02-08T06:41:00.514Z,1004.28
2019-02-08T06:42:00.500Z,1004.29
2019-02-08T06:43:00.488Z,1004.26
2019-02-08T06:44:00.480Z,1004.30
2019-02-08T06:45:00.466Z,1004.31
2019-02-08T06:46:00.468Z,1004.32
2019-02-08T06:47:00.449Z,1004.36
2019-02-08T06:48:00.433Z,1004.35
2019-02-08T06:49:00.424Z,1004.34
2019-02-08T06:50:00.411Z,1004.39
2019-02-08T06:51:00.436Z,1004.37
2019-02-08T06:52:00.389Z,1004.37
2019-02-08T06:53:00.379Z,1004.34
2019-02-08T06:54:00.370Z,1004.35
2019-02-08T06:55:00.361Z,1004.33
2019-02-08T06:56:00.347Z,1004.33
2019-02-08T06:57:00.366Z,1004.31
2019-02-08T06:58:00.322Z,1004.28
2019-02-08T06:59:00.310Z,1004.33
2019-02-08T07:00:00.300Z,1004.32
2019-02-08T07:01:00.295Z,1004.34
2019-02-08T07:02:00.281Z,1004.33
2019-02-08T07:03:00.277Z,1004.32
2019-02-08T07:04:00.253Z,1004.30
2019-02-08T07:05:00.243Z,1004.26
2019-02-08T07:06:00.234Z,1004.37
2019-02-08T07:07:00.220Z,1004.33
2019-02-08T07:08:00.235Z,1004.40
2019-02-08T07:09:00.225Z,1004.44
2019-02-08T07:10:00.190Z,1004.40
2019-02-08T07:11:00.176Z,1004.42
2019-02-08T07:12:00.165Z,1004.36
2019-02-08T07:13:00.158Z,1004.38
2019-02-08T07:14:00.150Z,1004.44
2019-02-08T07:15:00.239Z,1004.43
2019-02-08T07:16:00.125Z,1004.39
2019-02-08T07:17:00.113Z,1004.52
2019-02-08T07:18:00.107Z,1004.50
2019-02-08T07:19:00.101Z,1004.46
2019-02-08T07:20:00.234Z,1004.50
2019-02-08T07:21:00.076Z,1004.48
2019-02-08T07:22:00.055Z,1004.47
2019-02-08T07:23:00.046Z,1004.48
2019-02-08T07:24:00.033Z,1004.45
2019-02-08T07:25:00.055Z,1004.47
2019-02-08T07:26:00.018Z,1004.47
2019-02-08T07:27:00.001Z,1004.51
2019-02-08T07:27:59.991Z,1004.49
2019-02-08T07:28:59.979Z,1004.49
2019-02-08T07:29:59.966Z,1004.44
2019-02-08T07:30:59.978Z,1004.46
2019-02-08T07:31:59.953Z,1004.44
2019-02-08T07:32:59.934Z,1004.45
2019-02-08T07:33:59.924Z,1004.45
2019-02-08T07:34:59.915Z,1004.43
2019-02-08T07:35:59.914Z,1004.42
2019-02-08T07:36:59.896Z,1004.44
2019-02-08T07:38:00.260Z,1004.46
2019-02-08T07:38:59.869Z,1004.42
2019-02-08T07:39:59.857Z,1004.44
2019-02-08T07:40:59.869Z,1004.46
2019-02-08T07:41:59.833Z,1004.39
2019-02-08T07:42:59.822Z,1004.43
2019-02-08T07:43:59.821Z,1004.43
2019-02-08T07:44:59.802Z,1004.41
2019-02-08T07:45:59.789Z,1004.42
2019-02-08T07:46:59.793Z,1004.44
2019-02-08T07:47:59.779Z,1004.43
2019-02-08T07:48:59.761Z,1004.42
2019-02-08T07:49:59.751Z,1004.49
2019-02-08T07:50:59.735Z,1004.39
2019-02-08T07:51:59.727Z,1004.46
2019-02-08T07:52:59.732Z,1004.51
2019-02-08T07:53:59.702Z,1004.49
2019-02-08T07:54:59.691Z,1004.51
2019-02-08T07:55:59.686Z,1004.52
2019-02-08T07:56:59.668Z,1004.53
2019-02-08T07:57:59.658Z,1004.53
2019-02-08T07:58:59.681Z,1004.56
2019-02-08T07:59:59.638Z,1004.55
2019-02-08T08:00:59.627Z,1004.44
2019-02-08T08:01:59.619Z,1004.53
2019-02-08T08:02:59.602Z,1004.50
2019-02-08T08:04:01.333Z,1004.47
2019-02-08T08:04:59.609Z,1004.49
2019-02-08T08:05:59.570Z,1004.48
2019-02-08T08:06:59.566Z,1004.47
2019-02-08T08:08:00.384Z,1004.45
2019-02-08T08:08:59.544Z,1004.44
2019-02-08T08:09:59.526Z,1004.26
2019-02-08T08:10:59.526Z,1004.41
2019-02-08T08:11:59.507Z,1004.42
2019-02-08T08:12:59.516Z,1004.36
2019-02-08T08:13:59.483Z,1004.29
2019-02-08T08:14:59.485Z,1004.35
2019-02-08T08:15:59.481Z,1004.34
2019-02-08T08:16:59.455Z,1004.28
2019-02-08T08:17:59.446Z,1004.33
2019-02-08T08:18:59.427Z,1004.35
2019-02-08T08:19:59.416Z,1004.39
2019-02-08T08:20:59.406Z,1004.30
2019-02-08T08:21:59.415Z,1004.42
2019-02-08T08:22:59.384Z,1004.37
2019-02-08T08:23:59.372Z,1004.42
2019-02-08T08:24:59.359Z,1004.38
2019-02-08T08:25:59.351Z,1004.40
2019-02-08T08:26:59.351Z,1004.42
2019-02-08T08:27:59.348Z,1004.42
2019-02-08T08:28:59.315Z,1004.49
2019-02-08T08:29:59.307Z,1004.38
2019-02-08T08:30:59.301Z,1004.37
2019-02-08T08:31:59.296Z,1004.41
2019-02-08T08:32:59.286Z,1004.43
2019-02-08T08:33:59.267Z,1004.37
2019-02-08T08:34:59.250Z,1004.43
2019-02-08T08:35:59.247Z,1004.46
2019-02-08T08:36:59.227Z,1004.40
2019-02-08T08:37:59.229Z,1004.43
2019-02-08T08:38:59.245Z,1004.42
2019-02-08T08:39:59.198Z,1004.48
2019-02-08T08:40:59.186Z,1004.43
2019-02-08T08:41:59.171Z,1004.49
2019-02-08T08:42:59.182Z,1004.41
2019-02-08T08:43:59.186Z,1004.46
2019-02-08T08:44:59.140Z,1004.49
2019-02-08T08:45:59.131Z,1004.37
2019-02-08T08:46:59.129Z,1004.39
2019-02-08T08:47:59.108Z,1004.42
2019-02-08T08:48:59.096Z,1004.38
2019-02-08T08:49:59.118Z,1004.35
2019-02-08T08:50:59.074Z,1004.36
2019-02-08T08:51:59.063Z,1004.39
2019-02-08T08:52:59.060Z,1004.30
2019-02-08T08:53:59.040Z,1004.36
2019-02-08T08:54:59.027Z,1004.31
2019-02-08T08:55:59.049Z,1004.27
2019-02-08T08:56:59.007Z,1004.33
2019-02-08T08:57:58.996Z,1004.28
2019-02-08T08:58:58.994Z,1004.25
2019-02-08T08:59:58.986Z,1004.28
2019-02-08T09:00:58.965Z,1004.31
2019-02-08T09:01:58.966Z,1004.30
2019-02-08T09:02:58.940Z,1004.37
2019-02-08T09:03:58.931Z,1004.33
2019-02-08T09:04:58.922Z,1004.27
2019-02-08T09:05:58.909Z,1004.31
2019-02-08T09:06:58.941Z,1004.24
2019-02-08T09:07:58.884Z,1004.26
2019-02-08T09:08:58.875Z,1004.24
2019-02-08T09:09:58.872Z,1004.19
2019-02-08T09:10:58.857Z,1004.21
2019-02-08T09:11:58.839Z,1004.20
2019-02-08T09:12:58.859Z,1004.19
2019-02-08T09:13:58.820Z,1004.19
2019-02-08T09:14:58.807Z,1004.16
2019-02-08T09:15:58.795Z,1004.15
2019-02-08T09:16:58.786Z,1004.13
2019-02-08T09:17:58.776Z,1004.13
2019-02-08T09:18:58.799Z,1004.13
2019-02-08T09:19:58.750Z,1004.09
2019-02-08T09:20:58.739Z,1004.08
2019-02-08T09:21:58.729Z,1004.01
2019-02-08T09:22:58.724Z,1004.05
2019-02-08T09:23:58.707Z,1004.04
2019-02-08T09:24:58.737Z,1003.97
2019-02-08T09:25:58.685Z,1004.07
2019-02-08T09:26:58.677Z,1004.08
2019-02-08T09:27:58.664Z,1004.09
2019-02-08T09:28:58.653Z,1004.10
2019-02-08T09:29:58.641Z,1004.09
2019-02-08T09:30:58.683Z,1004.09
2019-02-08T09:31:58.619Z,1004.08
2019-02-08T09:32:58.611Z,1004.10
2019-02-08T09:33:58.598Z,1004.11
2019-02-08T09:34:58.593Z,1004.13
2019-02-08T09:35:58.574Z,1004.11
2019-02-08T09:36:58.626Z,1004.09
2019-02-08T09:37:58.559Z,1004.11
2019-02-08T09:38:58.544Z,1004.08
2019-02-08T09:39:58.530Z,1004.12
2019-02-08T09:40:58.518Z,1004.09
2019-02-08T09:41:58.510Z,1004.03
2019-02-08T09:42:58.513Z,1004.11
2019-02-08T09:43:58.484Z,1004.04
2019-02-08T09:44:58.477Z,1004.09
2019-02-08T09:45:58.477Z,1003.99
2019-02-08T09:46:58.455Z,1004.05
2019-02-08T09:47:58.466Z,1004.01
2019-02-08T09:48:58.433Z,1004.06
2019-02-08T09:49:58.426Z,1004.10
2019-02-08T09:50:58.410Z,1004.07
2019-02-08T09:51:58.400Z,1004.07
2019-02-08T09:52:58.387Z,1004.06
2019-02-08T09:53:58.410Z,1004.00
2019-02-08T09:54:58.366Z,1004.04
2019-02-08T09:55:59.930Z,1004.00
2019-02-08T09:56:58.344Z,1004.04
2019-02-08T09:57:58.344Z,1004.02
2019-02-08T09:58:58.326Z,1004.09
2019-02-08T09:59:58.353Z,1004.07
2019-02-08T10:00:58.305Z,1003.99
2019-02-08T10:01:58.288Z,1004.00
2019-02-08T10:02:58.278Z,1004.06
2019-02-08T10:03:58.272Z,1004.06
2019-02-08T10:04:58.255Z,1004.07
2019-02-08T10:05:58.265Z,1004.01
2019-02-08T10:06:58.233Z,1004.00
2019-02-08T10:07:58.222Z,1004.02
2019-02-08T10:08:58.210Z,1003.93
2019-02-08T10:09:58.209Z,1003.99
2019-02-08T10:10:58.211Z,1004.00
2019-02-08T10:11:58.183Z,1003.97
2019-02-08T10:12:58.167Z,1004.09
2019-02-08T10:13:58.156Z,1003.99
2019-02-08T10:14:58.146Z,1004.02
2019-02-08T10:15:58.143Z,1004.05
2019-02-08T10:16:58.146Z,1003.95
2019-02-08T10:17:58.123Z,1003.82
2019-02-08T10:18:58.103Z,1003.90
2019-02-08T10:19:58.091Z,1003.98
2019-02-08T10:20:58.081Z,1003.95
2019-02-08T10:21:58.069Z,1003.98
2019-02-08T10:22:58.192Z,1004.05
2019-02-08T10:23:58.052Z,1003.98
2019-02-08T10:24:58.035Z,1003.98
2019-02-08T10:26:05.032Z,1004.04
2019-02-08T10:26:59.012Z,1004.01
2019-02-08T10:27:58.008Z,1003.99
2019-02-08T10:28:57.998Z,1003.95
2019-02-08T10:29:57.992Z,1004.08
2019-02-08T10:30:57.971Z,1004.05
2019-02-08T10:31:57.992Z,1004.01
2019-02-08T10:32:57.949Z,1003.99
2019-02-08T10:33:57.938Z,1003.98
2019-02-08T10:34:57.925Z,1003.95
2019-02-08T10:35:57.915Z,1003.96
2019-02-08T10:36:57.905Z,1003.91
2019-02-08T10:37:57.915Z,1003.95
2019-02-08T10:38:57.902Z,1003.99
2019-02-08T10:39:57.876Z,1003.90
2019-02-08T10:40:57.859Z,1003.93
2019-02-08T10:41:57.852Z,1003.90
2019-02-08T10:42:57.856Z,1004.03
2019-02-08T10:43:57.843Z,1003.99
2019-02-08T10:44:57.850Z,1003.91
2019-02-08T10:45:57.810Z,1003.88
2019-02-08T10:46:57.790Z,1003.91
2019-02-08T10:47:57.780Z,1003.98
2019-02-08T10:48:57.786Z,1003.92
2019-02-08T10:49:57.759Z,1003.89
2019-02-08T10:50:57.787Z,1003.80
2019-02-08T10:51:57.737Z,1003.85
2019-02-08T10:52:57.738Z,1003.83
2019-02-08T10:53:57.719Z,1003.94
2019-02-08T10:54:57.705Z,1003.81
2019-02-08T10:55:57.700Z,1003.83
2019-02-08T10:56:57.696Z,1003.84
2019-02-08T10:57:57.669Z,1003.65
2019-02-08T10:58:57.662Z,1003.72
2019-02-08T10:59:57.646Z,1003.70
2019-02-08T11:00:57.651Z,1003.71
2019-02-08T11:01:57.633Z,1003.70
2019-02-08T11:02:57.618Z,1003.70
2019-02-08T11:03:57.628Z,1003.76
2019-02-08T11:04:57.591Z,1003.72
2019-02-08T11:05:57.583Z,1003.74
2019-02-08T11:06:57.568Z,1003.71
2019-02-08T11:07:57.567Z,1003.65
2019-02-08T11:08:57.561Z,1003.66
2019-02-08T11:09:57.556Z,1003.56
2019-02-08T11:10:57.528Z,1003.60
2019-02-08T11:11:57.512Z,1003.64
2019-02-08T11:12:57.505Z,1003.65
2019-02-08T11:13:57.501Z,1003.65
2019-02-08T11:14:57.502Z,1003.63
2019-02-08T11:15:57.501Z,1003.64
2019-02-08T11:16:57.473Z,1003.60
2019-02-08T11:17:57.463Z,1003.63
2019-02-08T11:18:57.447Z,1003.64
2019-02-08T11:19:57.464Z,1003.66
2019-02-08T11:20:57.415Z,1003.57
2019-02-08T11:21:57.401Z,1003.42
2019-02-08T11:22:57.389Z,1003.54
2019-02-08T11:23:57.379Z,1003.59
2019-02-08T11:24:57.371Z,1003.51
2019-02-08T11:25:57.433Z,1003.43
2019-02-08T11:26:57.350Z,1003.42
2019-02-08T11:27:57.344Z,1003.46
2019-02-08T11:28:57.355Z,1003.52
2019-02-08T11:29:57.312Z,1003.33
2019-02-08T11:30:57.341Z,1003.41
2019-02-08T11:31:57.320Z,1003.40
2019-02-08T11:32:57.278Z,1003.51
2019-02-08T11:33:57.275Z,1003.34
2019-02-08T11:34:57.265Z,1003.32
2019-02-08T11:35:57.253Z,1003.27
2019-02-08T11:36:57.243Z,1003.43
2019-02-08T11:37:57.245Z,1003.37
2019-02-08T11:38:57.237Z,1003.30
2019-02-08T11:39:57.227Z,1003.34
2019-02-08T11:40:57.194Z,1003.29
2019-02-08T11:41:57.183Z,1003.41
2019-02-08T11:42:57.178Z,1003.30
2019-02-08T11:43:57.163Z,1003.25
2019-02-08T11:44:57.174Z,1003.16
2019-02-08T11:45:57.145Z,1003.17
2019-02-08T11:46:57.130Z,1003.13
2019-02-08T11:47:57.137Z,1003.13
2019-02-08T11:48:57.139Z,1003.11
2019-02-08T11:49:57.114Z,1003.11
2019-02-08T11:50:57.076Z,1003.13
2019-02-08T11:51:57.087Z,1003.15
2019-02-08T11:52:57.053Z,1003.11
2019-02-08T11:53:57.065Z,1003.07
2019-02-08T11:54:57.059Z,1002.99
2019-02-08T11:55:57.024Z,1003.14
2019-02-08T11:56:57.012Z,1003.12
2019-02-08T11:57:56.999Z,1003.13
2019-02-08T11:58:56.990Z,1003.05
2019-02-08T11:59:56.999Z,1003.03
2019-02-08T12:00:56.965Z,1003.03
2019-02-08T12:01:56.955Z,1003.14
2019-02-08T12:02:56.946Z,1003.05
2019-02-08T12:03:56.933Z,1003.13
2019-02-08T12:04:56.939Z,1003.14